Time,TemperatureF,DewpointF,PressureIn,WindDirection,WindDirectionDegrees,WindSpeedMPH,WindSpeedGustMPH,Humidity,HourlyPrecipIn,Conditions,Clouds,dailyrainin,SoftwareType,DateUTC
2013-06-21 00:00:00,70.5,34.9,29.89,SSW,210,3.5,3.5,27,0.00,CLR,,0.00,WeatherDisplay:10.37,2013-06-21 07:00:00,
2013-06-21 00:05:00,70.2,34.6,29.89,SSW,195,0.0,0.0,27,0.00,CLR,,0.00,WeatherDisplay:10.37,2013-06-21 07:05:00,
2013-06-21 00:10:00,69.7,35.1,29.89,SSE,152,5.8,5.8,28,0.00,CLR,,0.00,WeatherDisplay:10.37,2013-06-21 07:10:00,
2013-06-21 00:15:00,69.4,34.9,29.88,SSE,152,11.5,11.5,28,0.00,CLR,,0.00,WeatherDisplay:10.37,2013-06-21 07:15:00,
2013-06-21 00:20:00,69.5,34.0,29.88,SSE,155,3.5,0.0,27,0.00,CLR,,0.00,WeatherDisplay:10.37,2013-06-21 07:20:00,
2013-06-21 00:25:00,69.7,35.1,29.88,SSE,155,5.8,5.8,28,0.00,CLR,,0.00,WeatherDisplay:10.37,2013-06-21 07:25:00,
2013-06-21 00:30:00,69.5,34.0,29.88,SSE,155,10.4,10.4,27,0.00,CLR,,0.00,WeatherDisplay:10.37,2013-06-21 07:30:00,
2013-06-21 00:35:00,69.6,34.1,29.89,SSE,148,6.9,6.9,27,0.00,CLR,,0.00,WeatherDisplay:10.37,2013-06-21 07:35:00,
2013-06-21 00:40:00,69.3,34.8,29.88,SSE,148,5.0,5.0,28,0.00,CLR,,0.00,WeatherDisplay:10.37,2013-06-21 07:40:00,
2013-06-21 00:45:00,68.9,34.4,29.88,SE,129,11.5,11.5,28,0.00,CLR,,0.00,WeatherDisplay:10.37,2013-06-21 07:45:00,
2013-06-21 00:50:00,69.0,34.5,29.88,NNE,32,6.9,6.9,28,0.00,CLR,,0.00,WeatherDisplay:10.37,2013-06-21 07:50:00,
2013-06-21 00:55:00,69.2,36.4,29.87,NE,36,11.0,11.0,30,0.00,CLR,,0.00,WeatherDisplay:10.37,2013-06-21 07:55:00,
2013-06-21 01:00:00,70.4,36.6,29.87,North,360,4.6,4.6,29,0.00,CLR,,0.00,WeatherDisplay:10.37,2013-06-21 08:00:00,
2013-06-21 01:05:00,70.5,37.6,29.87,NW,312,5.8,5.8,30,0.00,CLR,,0.00,WeatherDisplay:10.37,2013-06-21 08:05:00,
2013-06-21 01:10:00,71.2,38.2,29.86,NNW,329,17.3,17.3,30,0.00,CLR,,0.00,WeatherDisplay:10.37,2013-06-21 08:10:00,
2013-06-21 01:15:00,71.5,38.4,29.86,NNW,330,27.6,27.6,30,0.00,CLR,,0.00,WeatherDisplay:10.37,2013-06-21 08:15:00,
2013-06-21 01:20:00,71.8,35.0,29.86,NW,305,21.9,21.9,26,0.00,CLR,,0.00,WeatherDisplay:10.37,2013-06-21 08:20:00,
2013-06-21 01:25:00,71.3,35.6,29.86,SW,217,8.1,8.1,27,0.00,CLR,,0.00,WeatherDisplay:10.37,2013-06-21 08:25:00,
2013-06-21 01:30:00,69.8,36.1,29.87,South,172,9.2,9.2,29,0.00,CLR,,0.00,WeatherDisplay:10.37,2013-06-21 08:30:00,
2013-06-21 01:35:00,67.7,36.0,29.87,SSE,164,9.0,9.0,31,0.00,CLR,,0.00,WeatherDisplay:10.37,2013-06-21 08:35:00,
2013-06-21 01:40:00,67.0,36.1,29.87,SSE,163,3.5,3.5,32,0.00,CLR,,0.00,WeatherDisplay:10.37,2013-06-21 08:40:00,
2013-06-21 01:45:00,66.8,36.0,29.87,SSE,163,3.5,3.5,32,0.00,CLR,,0.00,WeatherDisplay:10.37,2013-06-21 08:45:00,
2013-06-21 01:50:00,66.8,36.8,29.87,SSE,163,3.5,3.5,33,0.00,CLR,,0.00,WeatherDisplay:10.37,2013-06-21 08:50:00,
2013-06-21 01:55:00,66.5,36.5,29.87,SSE,163,3.5,3.5,33,0.00,CLR,,0.00,WeatherDisplay:10.37,2013-06-21 08:55:00,
2013-06-21 02:00:00,66.4,36.4,29.87,SSE,163,3.5,3.5,33,0.00,CLR,,0.00,WeatherDisplay:10.37,2013-06-21 09:00:00,
2013-06-21 02:05:00,66.3,36.3,29.87,ESE,117,3.5,3.5,33,0.00,CLR,,0.00,WeatherDisplay:10.37,2013-06-21 09:05:00,
2013-06-21 02:10:00,66.3,36.3,29.87,ESE,117,3.5,3.5,33,0.00,CLR,,0.00,WeatherDisplay:10.37,2013-06-21 09:10:00,
2013-06-21 02:15:00,66.2,36.2,29.86,ESE,117,2.0,2.0,33,0.00,CLR,,0.00,WeatherDisplay:10.37,2013-06-21 09:15:00,
2013-06-21 02:20:00,66.3,36.3,29.86,ESE,117,3.5,3.5,33,0.00,CLR,,0.00,WeatherDisplay:10.37,2013-06-21 09:20:00,
2013-06-21 02:25:00,66.2,36.2,29.86,ESE,117,3.5,3.5,33,0.00,CLR,,0.00,WeatherDisplay:10.37,2013-06-21 09:25:00,
2013-06-21 02:30:00,65.7,35.8,29.86,ESE,117,3.5,3.5,33,0.00,CLR,,0.00,WeatherDisplay:10.37,2013-06-21 09:30:00,
2013-06-21 02:35:00,65.3,36.2,29.86,ESE,117,4.6,4.6,34,0.00,CLR,,0.00,WeatherDisplay:10.37,2013-06-21 09:35:00,
2013-06-21 02:40:00,64.8,36.5,29.86,SSE,150,7.0,7.0,35,0.00,CLR,,0.00,WeatherDisplay:10.37,2013-06-21 09:40:00,
2013-06-21 02:45:00,64.4,36.8,29.86,SSE,150,5.0,5.0,36,0.00,CLR,,0.00,WeatherDisplay:10.37,2013-06-21 09:45:00,
2013-06-21 02:50:00,63.8,37.0,29.86,SSE,150,3.5,3.5,37,0.00,CLR,,0.00,WeatherDisplay:10.37,2013-06-21 09:50:00,
2013-06-21 02:55:00,63.3,36.6,29.87,SSE,150,0.0,0.0,37,0.00,CLR,,0.00,WeatherDisplay:10.37,2013-06-21 09:55:00,
2013-06-21 03:00:00,62.7,36.0,29.87,SSE,150,3.5,3.5,37,0.00,CLR,,0.00,WeatherDisplay:10.37,2013-06-21 10:00:00,
2013-06-21 03:05:00,62.3,35.7,29.87,SSE,150,3.0,3.0,37,0.00,CLR,,0.00,WeatherDisplay:10.37,2013-06-21 10:05:00,
2013-06-21 03:10:00,62.5,35.9,29.87,NNE,19,3.5,3.5,37,0.00,CLR,,0.00,WeatherDisplay:10.37,2013-06-21 10:10:00,
2013-06-21 03:15:00,63.0,37.0,29.87,NNE,20,6.9,6.9,38,0.00,CLR,,0.00,WeatherDisplay:10.37,2013-06-21 10:15:00,
2013-06-21 03:20:00,63.4,36.7,29.87,NNE,20,6.9,6.9,37,0.00,CLR,,0.00,WeatherDisplay:10.37,2013-06-21 10:20:00,
2013-06-21 03:25:00,63.3,36.6,29.86,NNE,24,5.8,5.8,37,0.00,CLR,,0.00,WeatherDisplay:10.37,2013-06-21 10:25:00,
2013-06-21 03:30:00,62.8,36.1,29.86,NNE,24,5.8,5.8,37,0.00,CLR,,0.00,WeatherDisplay:10.37,2013-06-21 10:30:00,
2013-06-21 03:35:00,63.1,36.4,29.86,ENE,77,11.5,11.5,37,0.00,CLR,,0.00,WeatherDisplay:10.37,2013-06-21 10:35:00,
2013-06-21 03:40:00,64.0,36.5,29.86,SE,144,13.0,13.0,36,0.00,CLR,,0.00,WeatherDisplay:10.37,2013-06-21 10:40:00,
2013-06-21 03:45:00,64.0,35.8,29.86,SSE,153,12.7,12.7,35,0.00,CLR,,0.00,WeatherDisplay:10.37,2013-06-21 10:45:00,
2013-06-21 03:50:00,64.5,36.2,29.86,SE,140,10.4,10.4,35,0.00,CLR,,0.00,WeatherDisplay:10.37,2013-06-21 10:50:00,
2013-06-21 03:55:00,63.8,37.0,29.86,SE,145,10.4,10.4,37,0.00,CLR,,0.00,WeatherDisplay:10.37,2013-06-21 10:55:00,
2013-06-21 04:00:00,63.3,37.2,29.86,SE,145,10.4,10.4,38,0.00,CLR,,0.00,WeatherDisplay:10.37,2013-06-21 11:00:00,
2013-06-21 04:05:00,62.7,36.7,29.86,SE,145,5.0,5.0,38,0.00,CLR,,0.00,WeatherDisplay:10.37,2013-06-21 11:05:00,
2013-06-21 04:10:00,61.6,35.7,29.87,SE,145,5.8,5.8,38,0.00,CLR,,0.00,WeatherDisplay:10.37,2013-06-21 11:10:00,
2013-06-21 04:15:00,60.5,34.7,29.87,SE,145,4.6,4.6,38,0.00,CLR,,0.00,WeatherDisplay:10.37,2013-06-21 11:15:00,
2013-06-21 04:20:00,59.3,33.0,29.87,SE,145,6.0,6.0,37,0.00,CLR,,0.00,WeatherDisplay:10.37,2013-06-21 11:20:00,
2013-06-21 04:25:00,59.0,33.4,29.87,SE,145,3.5,3.5,38,0.00,CLR,,0.00,WeatherDisplay:10.37,2013-06-21 11:25:00,
2013-06-21 04:30:00,58.5,33.0,29.87,SE,145,3.5,3.5,38,0.00,CLR,,0.00,WeatherDisplay:10.37,2013-06-21 11:30:00,
2013-06-21 04:35:00,58.4,32.9,29.88,SE,145,3.5,3.5,38,0.00,CLR,,0.00,WeatherDisplay:10.37,2013-06-21 11:35:00,
2013-06-21 04:40:00,58.4,33.5,29.88,SE,145,3.5,3.5,39,0.00,CLR,,0.00,WeatherDisplay:10.37,2013-06-21 11:40:00,
2013-06-21 04:45:00,59.0,34.7,29.87,SE,145,3.5,3.5,40,0.00,CLR,,0.00,WeatherDisplay:10.37,2013-06-21 11:45:00,
2013-06-21 04:50:00,59.0,35.3,29.87,SE,145,3.5,3.5,41,0.00,CLR,,0.00,WeatherDisplay:10.37,2013-06-21 11:50:00,
2013-06-21 04:55:00,59.5,35.8,29.87,SE,145,3.5,3.5,41,0.00,CLR,,0.00,WeatherDisplay:10.37,2013-06-21 11:55:00,
2013-06-21 05:00:00,59.6,36.5,29.88,SE,145,8.1,8.1,42,0.00,CLR,,0.00,WeatherDisplay:10.37,2013-06-21 12:00:00,
2013-06-21 05:05:00,59.5,37.0,29.88,SE,145,4.6,4.6,43,0.00,CLR,,0.00,WeatherDisplay:10.37,2013-06-21 12:05:00,
2013-06-21 05:10:00,60.0,38.0,29.88,SE,145,9.2,9.2,44,0.00,CLR,,0.00,WeatherDisplay:10.37,2013-06-21 12:10:00,
2013-06-21 05:15:00,60.7,38.1,29.88,SSE,161,6.9,6.9,43,0.00,CLR,,0.00,WeatherDisplay:10.37,2013-06-21 12:15:00,
2013-06-21 05:20:00,60.8,37.5,29.88,SSE,162,4.6,4.6,42,0.00,CLR,,0.00,WeatherDisplay:10.37,2013-06-21 12:20:00,
2013-06-21 05:25:00,60.8,37.5,29.88,SSE,162,4.6,4.6,42,0.00,CLR,,0.00,WeatherDisplay:10.37,2013-06-21 12:25:00,
2013-06-21 05:30:00,60.6,37.4,29.88,SSE,163,5.8,5.8,42,0.00,CLR,,0.00,WeatherDisplay:10.37,2013-06-21 12:30:00,
2013-06-21 05:35:00,60.6,38.0,29.88,SSE,163,3.5,3.5,43,0.00,CLR,,0.00,WeatherDisplay:10.37,2013-06-21 12:35:00,
2013-06-21 05:40:00,60.5,37.9,29.89,SSE,163,6.0,6.0,43,0.00,CLR,,0.00,WeatherDisplay:10.37,2013-06-21 12:40:00,
2013-06-21 05:45:00,60.4,37.8,29.88,South,170,12.7,12.7,43,0.00,CLR,,0.00,WeatherDisplay:10.37,2013-06-21 12:45:00,
2013-06-21 05:50:00,60.2,37.6,29.88,South,170,6.9,6.9,43,0.00,CLR,,0.00,WeatherDisplay:10.37,2013-06-21 12:50:00,
2013-06-21 05:55:00,60.4,37.8,29.89,South,170,6.9,6.9,43,0.00,CLR,,0.00,WeatherDisplay:10.37,2013-06-21 12:55:00,
2013-06-21 06:00:00,60.6,38.0,29.89,South,170,5.8,5.8,43,0.00,CLR,,0.00,WeatherDisplay:10.37,2013-06-21 13:00:00,
2013-06-21 06:05:00,60.7,37.5,29.88,South,169,5.8,5.8,42,0.00,CLR,,0.00,WeatherDisplay:10.37,2013-06-21 13:05:00,
2013-06-21 06:10:00,60.8,37.5,29.89,South,170,3.5,3.7,42,0.00,CLR,,0.00,WeatherDisplay:10.37,2013-06-21 13:10:00,
2013-06-21 06:15:00,60.8,37.5,29.89,South,169,4.6,4.6,42,0.00,CLR,,0.00,WeatherDisplay:10.37,2013-06-21 13:15:00,
2013-06-21 06:20:00,60.7,37.5,29.89,South,170,9.0,9.0,42,0.00,CLR,,0.00,WeatherDisplay:10.37,2013-06-21 13:20:00,
2013-06-21 06:25:00,60.5,37.3,29.89,South,170,9.2,9.2,42,0.00,CLR,,0.00,WeatherDisplay:10.37,2013-06-21 13:25:00,
2013-06-21 06:30:00,60.4,36.6,29.89,South,169,9.2,9.2,41,0.00,CLR,,0.00,WeatherDisplay:10.37,2013-06-21 13:30:00,
2013-06-21 06:35:00,60.5,36.7,29.89,South,170,6.9,6.9,41,0.00,CLR,,0.00,WeatherDisplay:10.37,2013-06-21 13:35:00,
2013-06-21 06:40:00,60.7,36.8,29.89,South,170,5.0,5.0,41,0.00,CLR,,0.00,WeatherDisplay:10.37,2013-06-21 13:40:00,
2013-06-21 06:45:00,60.9,36.4,29.89,South,170,5.8,5.8,40,0.00,CLR,,0.00,WeatherDisplay:10.37,2013-06-21 13:45:00,
2013-06-21 06:50:00,61.1,37.2,29.89,South,169,4.6,4.6,41,0.00,CLR,,0.00,WeatherDisplay:10.37,2013-06-21 13:50:00,
2013-06-21 06:55:00,61.1,37.2,29.89,South,170,7.0,7.0,41,0.00,CLR,,0.00,WeatherDisplay:10.37,2013-06-21 13:55:00,
2013-06-21 07:00:00,61.1,37.2,29.89,South,170,8.1,8.1,41,0.00,CLR,,0.00,WeatherDisplay:10.37,2013-06-21 14:00:00,
2013-06-21 07:05:00,61.3,36.8,29.89,South,171,7.0,7.0,40,0.00,CLR,,0.00,WeatherDisplay:10.37,2013-06-21 14:05:00,
2013-06-21 07:10:00,61.8,37.2,29.89,South,171,11.5,11.5,40,0.00,CLR,,0.00,WeatherDisplay:10.37,2013-06-21 14:10:00,
2013-06-21 07:15:00,62.5,37.2,29.89,South,174,11.5,11.5,39,0.00,CLR,,0.00,WeatherDisplay:10.37,2013-06-21 14:15:00,
2013-06-21 07:20:00,62.9,36.9,29.89,South,175,10.4,10.4,38,0.00,CLR,,0.00,WeatherDisplay:10.37,2013-06-21 14:20:00,
2013-06-21 07:25:00,63.2,37.2,29.90,South,179,12.7,12.7,38,0.00,CLR,,0.00,WeatherDisplay:10.37,2013-06-21 14:25:00,
2013-06-21 07:30:00,63.6,37.5,29.89,SSW,203,12.7,12.7,38,0.00,CLR,,0.00,WeatherDisplay:10.37,2013-06-21 14:30:00,
2013-06-21 07:35:00,64.1,38.0,29.90,SSW,206,9.2,9.2,38,0.00,CLR,,0.00,WeatherDisplay:10.37,2013-06-21 14:35:00,
2013-06-21 07:40:00,64.7,37.8,29.90,SSW,206,10.4,10.4,37,0.00,CLR,,0.00,WeatherDisplay:10.37,2013-06-21 14:40:00,
2013-06-21 07:45:00,65.3,37.6,29.90,SSW,206,10.4,10.4,36,0.00,CLR,,0.00,WeatherDisplay:10.37,2013-06-21 14:45:00,
2013-06-21 07:50:00,66.3,38.5,29.90,SSW,210,5.0,5.0,36,0.00,CLR,,0.00,WeatherDisplay:10.37,2013-06-21 14:50:00,
2013-06-21 07:55:00,67.3,38.7,29.90,SSW,210,7.0,7.0,35,0.00,CLR,,0.00,WeatherDisplay:10.37,2013-06-21 14:55:00,
2013-06-21 08:00:00,68.2,38.7,29.90,SSW,210,10.4,10.4,34,0.00,CLR,,0.00,WeatherDisplay:10.37,2013-06-21 15:00:00,
2013-06-21 08:05:00,69.0,37.9,29.90,SSW,211,10.4,10.4,32,0.00,CLR,,0.00,WeatherDisplay:10.37,2013-06-21 15:05:00,
2013-06-21 08:11:00,69.8,38.6,29.90,SSW,212,10.4,10.4,32,0.00,CLR,,0.00,WeatherDisplay:10.37,2013-06-21 15:11:00,
2013-06-21 08:17:00,70.4,38.3,29.90,SW,215,10.4,10.4,31,0.00,CLR,,0.00,WeatherDisplay:10.37,2013-06-21 15:17:00,
2013-06-21 08:22:00,70.8,37.8,29.90,SSW,211,11.5,11.5,30,0.00,CLR,,0.00,WeatherDisplay:10.37,2013-06-21 15:22:00,
2013-06-21 08:27:00,71.5,37.6,29.91,SW,217,11.5,11.5,29,0.00,CLR,,0.00,WeatherDisplay:10.37,2013-06-21 15:27:00,
2013-06-21 08:32:00,72.2,37.3,29.91,SSW,199,10.0,10.0,28,0.00,CLR,,0.00,WeatherDisplay:10.37,2013-06-21 15:32:00,
2013-06-21 08:37:00,72.6,38.5,29.91,SSW,206,11.5,11.5,29,0.00,CLR,,0.00,WeatherDisplay:10.37,2013-06-21 15:37:00,
2013-06-21 08:42:00,72.8,37.8,29.91,SSW,207,11.5,11.5,28,0.00,CLR,,0.00,WeatherDisplay:10.37,2013-06-21 15:42:00,
2013-06-21 08:47:00,72.7,37.7,29.91,SSW,207,5.8,5.8,28,0.00,CLR,,0.00,WeatherDisplay:10.37,2013-06-21 15:47:00,
2013-06-21 08:52:00,72.9,36.9,29.91,SSW,206,7.0,7.0,27,0.00,CLR,,0.00,WeatherDisplay:10.37,2013-06-21 15:52:00,
2013-06-21 08:57:00,73.1,37.1,29.91,SSW,206,8.1,8.1,27,0.00,CLR,,0.00,WeatherDisplay:10.37,2013-06-21 15:57:00,
2013-06-21 09:02:00,73.2,37.2,29.91,SSW,207,11.5,11.5,27,0.00,CLR,,0.00,WeatherDisplay:10.37,2013-06-21 16:02:00,
2013-06-21 09:08:00,73.5,36.5,29.91,SSW,207,9.2,9.2,26,0.00,CLR,,0.00,WeatherDisplay:10.37,2013-06-21 16:08:00,
2013-06-21 09:13:00,73.5,37.5,29.91,SSW,207,11.0,11.0,27,0.00,CLR,,0.00,WeatherDisplay:10.37,2013-06-21 16:13:00,
2013-06-21 09:18:00,73.6,37.5,29.91,SSW,207,8.1,8.1,27,0.00,CLR,,0.00,WeatherDisplay:10.37,2013-06-21 16:18:00,
2013-06-21 09:23:00,73.9,37.8,29.91,SSW,207,10.4,10.4,27,0.00,CLR,,0.00,WeatherDisplay:10.37,2013-06-21 16:23:00,
2013-06-21 09:28:00,74.4,38.2,29.91,SSW,200,11.5,11.5,27,0.00,CLR,,0.00,WeatherDisplay:10.37,2013-06-21 16:28:00,
2013-06-21 09:33:00,74.7,38.5,29.91,SSW,205,11.5,11.5,27,0.00,CLR,,0.00,WeatherDisplay:10.37,2013-06-21 16:33:00,
2013-06-21 09:38:00,75.1,37.9,29.91,SSW,205,8.1,8.1,26,0.00,CLR,,0.00,WeatherDisplay:10.37,2013-06-21 16:38:00,
2013-06-21 09:43:00,75.8,37.5,29.91,South,180,10.4,10.4,25,0.00,CLR,,0.00,WeatherDisplay:10.37,2013-06-21 16:43:00,
2013-06-21 09:48:00,75.8,37.5,29.91,South,181,11.5,11.5,25,0.00,CLR,,0.00,WeatherDisplay:10.37,2013-06-21 16:48:00,
2013-06-21 09:53:00,76.5,38.0,29.91,South,181,9.2,9.2,25,0.00,CLR,,0.00,WeatherDisplay:10.37,2013-06-21 16:53:00,
2013-06-21 09:58:00,77.0,38.5,29.91,South,182,14.0,14.0,25,0.00,CLR,,0.00,WeatherDisplay:10.37,2013-06-21 16:58:00,
2013-06-21 10:03:00,76.7,37.2,29.91,South,182,6.9,6.9,24,0.00,CLR,,0.00,WeatherDisplay:10.37,2013-06-21 17:03:00,
2013-06-21 10:08:00,77.2,37.6,29.91,South,182,4.6,4.6,24,0.00,CLR,,0.00,WeatherDisplay:10.37,2013-06-21 17:08:00,
2013-06-21 10:14:00,78.1,37.3,29.91,SSW,211,11.0,11.0,23,0.00,CLR,,0.00,WeatherDisplay:10.37,2013-06-21 17:14:00,
2013-06-21 10:19:00,78.5,37.6,29.91,SSW,200,6.9,6.9,23,0.00,CLR,,0.00,WeatherDisplay:10.37,2013-06-21 17:19:00,
2013-06-21 10:24:00,79.1,37.0,29.91,West,279,13.8,13.8,22,0.00,CLR,,0.00,WeatherDisplay:10.37,2013-06-21 17:24:00,
2013-06-21 10:29:00,79.7,36.3,29.91,SSW,213,15.0,15.0,21,0.00,CLR,,0.00,WeatherDisplay:10.37,2013-06-21 17:29:00,
2013-06-21 10:34:00,79.8,36.4,29.91,West,259,14.0,14.0,21,0.00,CLR,,0.00,WeatherDisplay:10.37,2013-06-21 17:34:00,
2013-06-21 10:39:00,80.2,36.7,29.91,SSW,210,11.5,11.5,21,0.00,CLR,,0.00,WeatherDisplay:10.37,2013-06-21 17:39:00,
2013-06-21 10:46:00,80.9,37.3,29.91,SSW,209,15.0,15.0,21,0.00,CLR,,0.00,WeatherDisplay:10.37,2013-06-21 17:46:00,
2013-06-21 10:47:00,80.9,37.3,29.91,SSW,210,12.0,12.0,21,0.00,CLR,,0.00,WeatherDisplay:10.37,2013-06-21 17:47:00,
2013-06-21 10:51:00,80.8,37.2,29.91,SSW,203,13.8,13.8,21,0.00,CLR,,0.00,WeatherDisplay:10.37,2013-06-21 17:51:00,
2013-06-21 10:56:00,81.1,36.2,29.91,SSW,207,13.8,13.8,20,0.00,CLR,,0.00,WeatherDisplay:10.37,2013-06-21 17:56:00,
2013-06-21 11:01:00,80.9,36.1,29.91,WSW,257,16.1,16.1,20,0.00,CLR,,0.00,WeatherDisplay:10.37,2013-06-21 18:01:00,
2013-06-21 11:06:00,81.2,36.3,29.91,WSW,257,12.7,12.7,20,0.00,CLR,,0.00,WeatherDisplay:10.37,2013-06-21 18:06:00,
2013-06-21 11:11:00,82.0,37.0,29.91,SSW,213,11.5,11.5,20,0.00,CLR,,0.00,WeatherDisplay:10.37,2013-06-21 18:11:00,
2013-06-21 11:16:00,82.1,37.0,29.91,SSW,194,11.5,11.5,20,0.00,CLR,,0.00,WeatherDisplay:10.37,2013-06-21 18:16:00,
2013-06-21 11:22:00,82.3,37.2,29.91,SSW,199,11.5,11.5,20,0.00,CLR,,0.00,WeatherDisplay:10.37,2013-06-21 18:22:00,
2013-06-21 11:23:00,82.4,36.0,29.91,SSW,200,11.5,11.5,19,0.00,CLR,,0.00,WeatherDisplay:10.37,2013-06-21 18:23:00,
2013-06-21 11:24:00,82.4,36.0,29.91,SSW,200,12.7,12.7,19,0.00,CLR,,0.00,WeatherDisplay:10.37,2013-06-21 18:24:00,
2013-06-21 11:25:00,82.4,36.0,29.91,SSW,202,13.0,13.0,19,0.00,CLR,,0.00,WeatherDisplay:10.37,2013-06-21 18:25:00,
2013-06-21 11:31:00,82.9,35.0,29.91,West,268,18.4,18.4,18,0.00,CLR,,0.00,WeatherDisplay:10.37,2013-06-21 18:31:00,
2013-06-21 11:36:00,83.1,36.6,29.91,WSW,254,12.7,12.7,19,0.00,CLR,,0.00,WeatherDisplay:10.37,2013-06-21 18:36:00,
2013-06-21 11:41:00,83.4,35.4,29.91,West,275,10.4,10.4,18,0.00,CLR,,0.00,WeatherDisplay:10.37,2013-06-21 18:41:00,
2013-06-21 11:45:00,83.4,34.0,29.90,SSW,198,10.4,10.4,17,0.00,CLR,,0.00,WeatherDisplay:10.37,2013-06-21 18:45:00,
2013-06-21 11:46:00,83.4,34.0,29.91,SSW,198,10.4,10.4,17,0.00,CLR,,0.00,WeatherDisplay:10.37,2013-06-21 18:46:00,
2013-06-21 11:47:00,83.4,34.0,29.90,SSW,199,9.2,9.2,17,0.00,CLR,,0.00,WeatherDisplay:10.37,2013-06-21 18:47:00,
2013-06-21 11:52:00,83.6,34.2,29.90,SSW,199,5.8,5.8,17,0.00,CLR,,0.00,WeatherDisplay:10.37,2013-06-21 18:52:00,
2013-06-21 11:53:00,83.6,34.2,29.90,SSW,199,10.0,10.0,17,0.00,CLR,,0.00,WeatherDisplay:10.37,2013-06-21 18:53:00,
2013-06-21 11:58:00,83.9,34.4,29.90,SSW,203,11.5,11.5,17,0.00,CLR,,0.00,WeatherDisplay:10.37,2013-06-21 18:58:00,
2013-06-21 12:03:00,84.3,34.7,29.90,SSW,203,10.4,10.4,17,0.00,CLR,,0.00,WeatherDisplay:10.37,2013-06-21 19:03:00,
2013-06-21 12:08:00,84.3,34.7,29.90,WSW,250,12.7,12.7,17,0.00,CLR,,0.00,WeatherDisplay:10.37,2013-06-21 19:08:00,
2013-06-21 12:13:00,84.4,34.8,29.90,West,276,16.1,16.1,17,0.00,CLR,,0.00,WeatherDisplay:10.37,2013-06-21 19:13:00,
2013-06-21 12:18:00,84.7,35.0,29.90,SSW,209,7.0,7.0,17,0.00,CLR,,0.00,WeatherDisplay:10.37,2013-06-21 19:18:00,
2013-06-21 12:20:00,85.3,34.0,29.90,SSW,209,13.0,13.0,16,0.00,CLR,,0.00,WeatherDisplay:10.37,2013-06-21 19:20:00,
2013-06-21 12:25:00,85.9,34.5,29.89,SSW,207,13.8,13.8,16,0.00,CLR,,0.00,WeatherDisplay:10.37,2013-06-21 19:25:00,
2013-06-21 12:30:00,85.5,32.6,29.89,SSW,195,15.0,15.0,15,0.00,CLR,,0.00,WeatherDisplay:10.37,2013-06-21 19:30:00,
2013-06-21 12:35:00,85.7,34.3,29.89,South,176,15.0,15.0,16,0.00,CLR,,0.00,WeatherDisplay:10.37,2013-06-21 19:35:00,
2013-06-21 12:40:00,86.4,34.9,29.89,South,190,15.0,15.0,16,0.00,CLR,,0.00,WeatherDisplay:10.37,2013-06-21 19:40:00,
2013-06-21 12:44:00,86.5,36.5,29.89,SSW,192,17.3,17.3,17,0.00,CLR,,0.00,WeatherDisplay:10.37,2013-06-21 19:44:00,
2013-06-21 12:49:00,86.7,35.1,29.89,South,187,9.0,9.0,16,0.00,CLR,,0.00,WeatherDisplay:10.37,2013-06-21 19:49:00,
2013-06-21 12:54:00,87.2,35.5,29.89,SSW,194,12.7,12.7,16,0.00,CLR,,0.00,WeatherDisplay:10.37,2013-06-21 19:54:00,
2013-06-21 12:59:00,87.7,34.3,29.89,WSW,249,17.3,17.3,15,0.00,CLR,,0.00,WeatherDisplay:10.37,2013-06-21 19:59:00,
2013-06-21 13:04:00,87.7,34.3,29.88,SW,220,18.4,18.4,15,0.00,CLR,,0.00,WeatherDisplay:10.37,2013-06-21 20:04:00,
2013-06-21 13:09:00,87.7,34.3,29.88,SSW,196,11.5,11.5,15,0.00,CLR,,0.00,WeatherDisplay:10.37,2013-06-21 20:09:00,
2013-06-21 13:14:00,87.4,34.1,29.88,SSW,202,13.8,13.8,15,0.00,CLR,,0.00,WeatherDisplay:10.37,2013-06-21 20:14:00,
2013-06-21 13:19:00,87.7,34.3,29.88,SSW,203,15.0,15.0,15,0.00,CLR,,0.00,WeatherDisplay:10.37,2013-06-21 20:19:00,
2013-06-21 13:24:00,87.9,34.5,29.88,SSW,204,16.1,16.1,15,0.00,CLR,,0.00,WeatherDisplay:10.37,2013-06-21 20:24:00,
2013-06-21 13:29:00,88.1,32.9,29.88,South,191,16.1,16.1,14,0.00,CLR,,0.00,WeatherDisplay:10.37,2013-06-21 20:29:00,
2013-06-21 13:34:00,88.2,33.0,29.88,SSW,192,16.1,16.1,14,0.00,CLR,,0.00,WeatherDisplay:10.37,2013-06-21 20:34:00,
2013-06-21 13:39:00,88.3,33.1,29.88,SSW,195,16.0,16.0,14,0.00,CLR,,0.00,WeatherDisplay:10.37,2013-06-21 20:39:00,
2013-06-21 13:44:00,88.5,34.9,29.88,South,191,12.7,12.7,15,0.00,CLR,,0.00,WeatherDisplay:10.37,2013-06-21 20:44:00,
2013-06-21 13:49:00,88.6,35.0,29.87,SSW,195,19.6,19.6,15,0.00,CLR,,0.00,WeatherDisplay:10.37,2013-06-21 20:49:00,
2013-06-21 13:54:00,88.9,35.3,29.87,South,186,18.4,18.4,15,0.00,CLR,,0.00,WeatherDisplay:10.37,2013-06-21 20:54:00,
2013-06-21 13:59:00,89.6,34.1,29.87,SSW,210,13.0,13.0,14,0.00,CLR,,0.00,WeatherDisplay:10.37,2013-06-21 20:59:00,
2013-06-21 14:04:00,89.6,35.8,29.87,SSW,202,13.8,13.8,15,0.00,CLR,,0.00,WeatherDisplay:10.37,2013-06-21 21:04:00,
2013-06-21 14:09:00,89.6,35.8,29.86,WSW,245,19.0,19.0,15,0.00,CLR,,0.00,WeatherDisplay:10.37,2013-06-21 21:09:00,
2013-06-21 14:14:00,89.3,35.6,29.86,South,184,19.6,19.6,15,0.00,CLR,,0.00,WeatherDisplay:10.37,2013-06-21 21:14:00,
2013-06-21 14:19:00,89.6,37.5,29.86,West,267,18.4,18.4,16,0.00,CLR,,0.00,WeatherDisplay:10.37,2013-06-21 21:19:00,
2013-06-21 14:24:00,89.5,37.4,29.86,WSW,250,20.7,20.7,16,0.00,CLR,,0.00,WeatherDisplay:10.37,2013-06-21 21:24:00,
2013-06-21 14:29:00,88.8,36.8,29.86,West,271,21.9,21.9,16,0.00,CLR,,0.00,WeatherDisplay:10.37,2013-06-21 21:29:00,
2013-06-21 14:34:00,88.9,36.9,29.86,SSW,195,18.4,18.4,16,0.00,CLR,,0.00,WeatherDisplay:10.37,2013-06-21 21:34:00,
2013-06-21 14:39:00,89.9,36.1,29.86,West,265,16.0,16.0,15,0.00,CLR,,0.00,WeatherDisplay:10.37,2013-06-21 21:39:00,
2013-06-21 14:44:00,89.4,37.3,29.86,WNW,282,15.0,15.0,16,0.00,CLR,,0.00,WeatherDisplay:10.37,2013-06-21 21:44:00,
2013-06-21 14:49:00,89.9,36.1,29.86,SSW,213,16.1,16.1,15,0.00,CLR,,0.00,WeatherDisplay:10.37,2013-06-21 21:49:00,
2013-06-21 14:54:00,89.9,36.1,29.86,West,263,18.4,18.4,15,0.00,CLR,,0.00,WeatherDisplay:10.37,2013-06-21 21:54:00,
2013-06-21 14:59:00,89.3,35.6,29.86,WNW,282,16.0,16.0,15,0.00,CLR,,0.00,WeatherDisplay:10.37,2013-06-21 21:59:00,
2013-06-21 15:04:00,89.2,37.1,29.86,WSW,241,16.0,16.0,16,0.00,CLR,,0.00,WeatherDisplay:10.37,2013-06-21 22:04:00,
2013-06-21 15:09:00,89.4,35.7,29.86,SW,215,19.6,19.6,15,0.00,CLR,,0.00,WeatherDisplay:10.37,2013-06-21 22:09:00,
2013-06-21 15:15:00,89.3,33.8,29.86,WSW,250,23.0,23.0,14,0.00,CLR,,0.00,WeatherDisplay:10.37,2013-06-21 22:15:00,
2013-06-21 15:20:00,89.3,37.2,29.86,SSW,212,21.9,21.9,16,0.00,CLR,,0.00,WeatherDisplay:10.37,2013-06-21 22:20:00,
2013-06-21 15:25:00,89.8,36.0,29.85,SSW,210,17.3,17.3,15,0.00,CLR,,0.00,WeatherDisplay:10.37,2013-06-21 22:25:00,
2013-06-21 15:30:00,89.6,35.8,29.86,SSW,200,20.7,20.7,15,0.00,CLR,,0.00,WeatherDisplay:10.37,2013-06-21 22:30:00,
2013-06-21 15:35:00,89.2,33.8,29.85,WSW,253,17.3,17.3,14,0.00,CLR,,0.00,WeatherDisplay:10.37,2013-06-21 22:35:00,
2013-06-21 15:40:00,89.3,33.8,29.85,WSW,240,18.4,18.4,14,0.00,CLR,,0.00,WeatherDisplay:10.37,2013-06-21 22:40:00,
2013-06-21 15:45:00,89.4,33.9,29.86,WSW,241,24.2,24.2,14,0.00,CLR,,0.00,WeatherDisplay:10.37,2013-06-21 22:45:00,
2013-06-21 15:51:00,88.7,33.4,29.86,WSW,252,19.6,19.6,14,0.00,CLR,,0.00,WeatherDisplay:10.37,2013-06-21 22:51:00,
2013-06-21 15:56:00,88.3,34.8,29.86,WSW,254,16.1,16.1,15,0.00,CLR,,0.00,WeatherDisplay:10.37,2013-06-21 22:56:00,
2013-06-21 16:01:00,88.3,33.1,29.86,WSW,255,20.7,20.7,14,0.00,CLR,,0.00,WeatherDisplay:10.37,2013-06-21 23:01:00,
2013-06-21 16:06:00,88.3,33.1,29.85,WSW,257,18.4,18.4,14,0.00,CLR,,0.00,WeatherDisplay:10.37,2013-06-21 23:06:00,
2013-06-21 16:11:00,88.4,31.3,29.85,WNW,290,20.0,20.0,13,0.00,CLR,,0.00,WeatherDisplay:10.37,2013-06-21 23:11:00,
2013-06-21 16:16:00,88.1,32.9,29.85,WSW,240,20.7,20.7,14,0.00,CLR,,0.00,WeatherDisplay:10.37,2013-06-21 23:16:00,
2013-06-21 16:21:00,88.0,31.0,29.85,West,275,26.5,26.5,13,0.00,CLR,,0.00,WeatherDisplay:10.37,2013-06-21 23:21:00,
2013-06-21 16:26:00,87.8,30.8,29.85,WSW,255,27.6,27.6,13,0.00,CLR,,0.00,WeatherDisplay:10.37,2013-06-21 23:26:00,
2013-06-21 16:31:00,88.1,32.9,29.84,WSW,250,26.5,26.5,14,0.00,CLR,,0.00,WeatherDisplay:10.37,2013-06-21 23:31:00,
2013-06-21 16:36:00,87.9,30.9,29.85,West,273,29.9,29.9,13,0.00,CLR,,0.00,WeatherDisplay:10.37,2013-06-21 23:36:00,
2013-06-21 16:41:00,87.5,34.1,29.85,West,259,26.5,26.5,15,0.00,CLR,,0.00,WeatherDisplay:10.37,2013-06-21 23:41:00,
2013-06-21 16:46:00,87.1,33.8,29.85,West,263,26.5,26.5,15,0.00,CLR,,0.00,WeatherDisplay:10.37,2013-06-21 23:46:00,
2013-06-21 16:51:00,87.0,33.7,29.85,WSW,240,28.8,28.8,15,0.00,CLR,,0.00,WeatherDisplay:10.37,2013-06-21 23:51:00,
2013-06-21 16:56:00,87.1,33.8,29.85,West,273,26.5,26.5,15,0.00,CLR,,0.00,WeatherDisplay:10.37,2013-06-21 23:56:00,
2013-06-21 17:01:00,86.5,33.4,29.84,SW,229,24.2,24.2,15,0.00,CLR,,0.00,WeatherDisplay:10.37,2013-06-22 00:01:00,
2013-06-21 17:06:00,86.1,33.0,29.84,West,275,26.5,26.5,15,0.00,CLR,,0.00,WeatherDisplay:10.37,2013-06-22 00:06:00,
2013-06-21 17:11:00,85.9,34.5,29.84,West,259,26.5,26.5,16,0.00,CLR,,0.00,WeatherDisplay:10.37,2013-06-22 00:11:00,
2013-06-21 17:16:00,85.3,35.5,29.84,West,268,29.0,29.0,17,0.00,CLR,,0.00,WeatherDisplay:10.37,2013-06-22 00:16:00,
2013-06-21 17:21:00,85.1,32.2,29.84,West,261,28.8,28.8,15,0.00,CLR,,0.00,WeatherDisplay:10.37,2013-06-22 00:21:00,
2013-06-21 17:26:00,85.4,35.6,29.84,West,267,22.0,22.0,17,0.00,CLR,,0.00,WeatherDisplay:10.37,2013-06-22 00:26:00,
2013-06-21 17:31:00,85.4,35.6,29.83,West,281,24.2,24.2,17,0.00,CLR,,0.00,WeatherDisplay:10.37,2013-06-22 00:31:00,
2013-06-21 17:36:00,85.5,34.2,29.84,WNW,288,23.0,23.0,16,0.00,CLR,,0.00,WeatherDisplay:10.37,2013-06-22 00:36:00,
2013-06-21 17:41:00,84.9,36.7,29.83,WSW,254,27.6,27.6,18,0.00,CLR,,0.00,WeatherDisplay:10.37,2013-06-22 00:41:00,
2013-06-21 17:46:00,84.3,37.5,29.84,West,265,28.8,28.8,19,0.00,CLR,,0.00,WeatherDisplay:10.37,2013-06-22 00:46:00,
2013-06-21 17:51:00,83.2,37.9,29.84,WSW,253,30.0,30.0,20,0.00,CLR,,0.00,WeatherDisplay:10.37,2013-06-22 00:51:00,
2013-06-21 17:56:00,82.9,36.4,29.84,WSW,248,26.5,26.5,19,0.00,CLR,,0.00,WeatherDisplay:10.37,2013-06-22 00:56:00,
2013-06-21 18:01:00,82.6,37.5,29.84,WSW,255,26.5,26.5,20,0.00,CLR,,0.00,WeatherDisplay:10.37,2013-06-22 01:01:00,
2013-06-21 18:06:00,82.9,37.7,29.84,WSW,255,26.5,26.5,20,0.00,CLR,,0.00,WeatherDisplay:10.37,2013-06-22 01:06:00,
2013-06-21 18:11:00,83.1,36.6,29.84,West,260,20.7,20.7,19,0.00,CLR,,0.00,WeatherDisplay:10.37,2013-06-22 01:11:00,
2013-06-21 18:16:00,82.5,36.1,29.84,SW,232,21.9,21.9,19,0.00,CLR,,0.00,WeatherDisplay:10.37,2013-06-22 01:16:00,
2013-06-21 18:21:00,82.6,36.1,29.84,West,268,23.0,23.0,19,0.00,CLR,,0.00,WeatherDisplay:10.37,2013-06-22 01:21:00,
2013-06-21 18:26:00,82.7,34.9,29.84,West,265,26.5,26.5,18,0.00,CLR,,0.00,WeatherDisplay:10.37,2013-06-22 01:26:00,
2013-06-21 18:31:00,82.0,35.7,29.84,West,267,19.6,19.6,19,0.00,CLR,,0.00,WeatherDisplay:10.37,2013-06-22 01:31:00,
2013-06-21 18:36:00,81.8,35.5,29.85,West,264,25.3,25.3,19,0.00,CLR,,0.00,WeatherDisplay:10.37,2013-06-22 01:36:00,
2013-06-21 18:41:00,81.8,34.1,29.85,West,261,25.3,25.3,18,0.00,CLR,,0.00,WeatherDisplay:10.37,2013-06-22 01:41:00,
2013-06-21 18:46:00,81.6,35.3,29.85,West,265,22.0,22.0,19,0.00,CLR,,0.00,WeatherDisplay:10.37,2013-06-22 01:46:00,
2013-06-21 18:51:00,81.7,35.4,29.85,WSW,255,27.6,27.6,19,0.00,CLR,,0.00,WeatherDisplay:10.37,2013-06-22 01:51:00,
2013-06-21 18:56:00,81.4,33.8,29.85,SW,218,19.6,19.6,18,0.00,CLR,,0.00,WeatherDisplay:10.37,2013-06-22 01:56:00,
2013-06-21 19:01:00,80.9,36.1,29.85,WSW,245,20.7,20.7,20,0.00,CLR,,0.00,WeatherDisplay:10.37,2013-06-22 02:01:00,
2013-06-21 19:06:00,80.5,37.0,29.85,West,270,23.0,23.0,21,0.00,CLR,,0.00,WeatherDisplay:10.37,2013-06-22 02:06:00,
2013-06-21 19:11:00,80.0,36.5,29.85,West,259,20.7,20.7,21,0.00,CLR,,0.00,WeatherDisplay:10.37,2013-06-22 02:11:00,
2013-06-21 19:16:00,79.7,37.5,29.85,West,260,16.1,16.1,22,0.00,CLR,,0.00,WeatherDisplay:10.37,2013-06-22 02:16:00,
2013-06-21 19:21:00,79.9,37.6,29.85,West,281,13.0,13.0,22,0.00,CLR,,0.00,WeatherDisplay:10.37,2013-06-22 02:21:00,
2013-06-21 19:26:00,79.7,37.5,29.85,WSW,252,11.5,11.5,22,0.00,CLR,,0.00,WeatherDisplay:10.37,2013-06-22 02:26:00,
2013-06-21 19:31:00,79.6,37.4,29.85,WSW,238,5.8,5.8,22,0.00,CLR,,0.00,WeatherDisplay:10.37,2013-06-22 02:31:00,
2013-06-21 19:36:00,79.6,36.2,29.85,WSW,241,10.4,10.4,21,0.00,CLR,,0.00,WeatherDisplay:10.37,2013-06-22 02:36:00,
2013-06-21 19:41:00,79.4,36.0,29.85,WSW,250,14.0,14.0,21,0.00,CLR,,0.00,WeatherDisplay:10.37,2013-06-22 02:41:00,
2013-06-21 19:46:00,79.2,37.1,29.85,WSW,256,12.7,12.7,22,0.00,CLR,,0.00,WeatherDisplay:10.37,2013-06-22 02:46:00,
2013-06-21 19:51:00,78.4,36.4,29.85,WNW,283,19.6,19.6,22,0.00,CLR,,0.00,WeatherDisplay:10.37,2013-06-22 02:51:00,
2013-06-21 19:56:00,77.5,35.6,29.85,WNW,287,21.9,21.9,22,0.00,CLR,,0.00,WeatherDisplay:10.37,2013-06-22 02:56:00,
2013-06-21 20:01:00,76.8,36.2,29.86,West,261,12.7,12.7,23,0.00,CLR,,0.00,WeatherDisplay:10.37,2013-06-22 03:01:00,
2013-06-21 20:06:00,76.2,36.8,29.86,WSW,257,18.4,18.4,24,0.00,CLR,,0.00,WeatherDisplay:10.37,2013-06-22 03:06:00,
2013-06-21 20:11:00,75.7,36.3,29.86,West,267,13.8,13.8,24,0.00,CLR,,0.00,WeatherDisplay:10.37,2013-06-22 03:11:00,
2013-06-21 20:16:00,75.6,36.2,29.86,WNW,286,11.0,11.0,24,0.00,CLR,,0.00,WeatherDisplay:10.37,2013-06-22 03:16:00,
2013-06-21 20:21:00,75.7,36.3,29.86,West,280,10.4,10.4,24,0.00,CLR,,0.00,WeatherDisplay:10.37,2013-06-22 03:21:00,
2013-06-21 20:26:00,75.6,37.3,29.86,West,276,4.6,4.6,25,0.00,CLR,,0.00,WeatherDisplay:10.37,2013-06-22 03:26:00,
2013-06-21 20:31:00,75.3,36.0,29.87,West,265,3.5,3.5,24,0.00,CLR,,0.00,WeatherDisplay:10.37,2013-06-22 03:31:00,
2013-06-21 20:36:00,74.7,35.5,29.87,WSW,243,11.5,11.5,24,0.00,CLR,,0.00,WeatherDisplay:10.37,2013-06-22 03:36:00,
2013-06-21 20:41:00,74.3,34.1,29.86,WSW,250,3.5,3.5,23,0.00,CLR,,0.00,WeatherDisplay:10.37,2013-06-22 03:41:00,
2013-06-21 20:46:00,73.9,33.7,29.86,SSW,196,12.7,12.7,23,0.00,CLR,,0.00,WeatherDisplay:10.37,2013-06-22 03:46:00,
2013-06-21 20:51:00,73.6,33.5,29.86,West,265,15.0,15.0,23,0.00,CLR,,0.00,WeatherDisplay:10.37,2013-06-22 03:51:00,
2013-06-21 20:56:00,73.4,33.3,29.86,West,277,17.3,17.3,23,0.00,CLR,,0.00,WeatherDisplay:10.37,2013-06-22 03:56:00,
2013-06-21 21:01:00,73.6,33.5,29.86,West,263,11.5,11.5,23,0.00,CLR,,0.00,WeatherDisplay:10.37,2013-06-22 04:01:00,
2013-06-21 21:02:00,73.6,32.4,29.87,WSW,246,13.8,13.8,22,0.00,CLR,,0.00,WeatherDisplay:10.37,2013-06-22 04:02:00,
2013-06-21 21:07:00,73.5,32.3,29.87,WSW,255,11.5,11.5,22,0.00,CLR,,0.00,WeatherDisplay:10.37,2013-06-22 04:07:00,
2013-06-21 21:09:00,73.4,32.2,29.87,WSW,243,6.9,6.9,22,0.00,CLR,,0.00,WeatherDisplay:10.37,2013-06-22 04:09:00,
2013-06-21 21:14:00,72.9,32.9,29.87,SW,233,9.2,9.2,23,0.00,CLR,,0.00,WeatherDisplay:10.37,2013-06-22 04:14:00,
2013-06-21 21:19:00,72.5,33.6,29.87,SW,230,8.1,8.1,24,0.00,CLR,,0.00,WeatherDisplay:10.37,2013-06-22 04:19:00,
2013-06-21 21:24:00,72.3,33.5,29.87,SW,222,6.9,6.9,24,0.00,CLR,,0.00,WeatherDisplay:10.37,2013-06-22 04:24:00,
2013-06-21 21:29:00,72.2,34.4,29.87,SW,223,3.5,3.5,25,0.00,CLR,,0.00,WeatherDisplay:10.37,2013-06-22 04:29:00,
2013-06-21 21:34:00,72.1,34.3,29.87,SW,223,0.0,0.0,25,0.00,CLR,,0.00,WeatherDisplay:10.37,2013-06-22 04:34:00,
2013-06-21 21:39:00,72.3,34.5,29.87,SW,222,3.5,3.5,25,0.00,CLR,,0.00,WeatherDisplay:10.37,2013-06-22 04:39:00,
2013-06-21 21:44:00,72.4,34.6,29.87,South,170,3.5,3.5,25,0.00,CLR,,0.00,WeatherDisplay:10.37,2013-06-22 04:44:00,
2013-06-21 21:49:00,72.1,34.3,29.87,North,11,4.6,4.6,25,0.00,CLR,,0.00,WeatherDisplay:10.37,2013-06-22 04:49:00,
2013-06-21 21:54:00,72.2,34.4,29.87,NNE,22,4.6,4.6,25,0.00,CLR,,0.00,WeatherDisplay:10.37,2013-06-22 04:54:00,
2013-06-21 21:59:00,72.1,35.3,29.87,NNE,22,4.0,4.0,26,0.00,CLR,,0.00,WeatherDisplay:10.37,2013-06-22 04:59:00,
2013-06-21 22:04:00,71.7,34.0,29.87,NE,53,10.4,10.4,25,0.00,CLR,,0.00,WeatherDisplay:10.37,2013-06-22 05:04:00,
2013-06-21 22:09:00,71.0,33.4,29.88,ENE,66,9.2,9.2,25,0.00,CLR,,0.00,WeatherDisplay:10.37,2013-06-22 05:09:00,
2013-06-21 22:14:00,70.5,33.0,29.88,ENE,65,6.9,6.9,25,0.00,CLR,,0.00,WeatherDisplay:10.37,2013-06-22 05:14:00,
2013-06-21 22:19:00,70.0,33.5,29.87,ENE,65,3.5,3.5,26,0.00,CLR,,0.00,WeatherDisplay:10.37,2013-06-22 05:19:00,
2013-06-21 22:24:00,69.9,33.4,29.88,ENE,65,0.0,0.0,26,0.00,CLR,,0.00,WeatherDisplay:10.37,2013-06-22 05:24:00,
2013-06-21 22:29:00,69.9,33.4,29.88,ENE,66,3.5,3.5,26,0.00,CLR,,0.00,WeatherDisplay:10.37,2013-06-22 05:29:00,
2013-06-21 22:34:00,69.9,34.4,29.88,ENE,65,0.0,0.0,27,0.00,CLR,,0.00,WeatherDisplay:10.37,2013-06-22 05:34:00,
2013-06-21 22:39:00,69.8,34.3,29.88,ENE,66,3.0,3.0,27,0.00,CLR,,0.00,WeatherDisplay:10.37,2013-06-22 05:39:00,
2013-06-21 22:44:00,69.7,34.2,29.88,ENE,66,4.6,4.7,27,0.00,CLR,,0.00,WeatherDisplay:10.37,2013-06-22 05:44:00,
2013-06-21 22:49:00,69.9,34.4,29.88,ENE,66,6.9,6.9,27,0.00,CLR,,0.00,WeatherDisplay:10.37,2013-06-22 05:49:00,
2013-06-21 22:54:00,69.9,34.4,29.87,ENE,66,5.0,5.0,27,0.00,CLR,,0.00,WeatherDisplay:10.37,2013-06-22 05:54:00,
2013-06-21 22:59:00,70.1,34.5,29.87,ENE,66,6.9,6.9,27,0.00,CLR,,0.00,WeatherDisplay:10.37,2013-06-22 05:59:00,
2013-06-21 23:04:00,70.4,34.8,29.87,ENE,66,6.9,6.9,27,0.00,CLR,,0.00,WeatherDisplay:10.37,2013-06-22 06:04:00,
2013-06-21 23:09:00,70.6,35.0,29.87,ENE,65,3.5,3.5,27,0.00,CLR,,0.00,WeatherDisplay:10.37,2013-06-22 06:09:00,
2013-06-21 23:14:00,70.6,35.0,29.87,ENE,65,4.0,4.0,27,0.00,CLR,,0.00,WeatherDisplay:10.37,2013-06-22 06:14:00,
2013-06-21 23:19:00,70.8,36.1,29.87,ENE,66,4.6,4.6,28,0.00,CLR,,0.00,WeatherDisplay:10.37,2013-06-22 06:19:00,
2013-06-21 23:24:00,70.6,35.9,29.87,ENE,65,2.3,2.3,28,0.00,CLR,,0.00,WeatherDisplay:10.37,2013-06-22 06:24:00,
2013-06-21 23:29:00,70.2,35.5,29.87,ENE,65,2.3,0.0,28,0.00,CLR,,0.00,WeatherDisplay:10.37,2013-06-22 06:29:00,
2013-06-21 23:34:00,69.7,35.1,29.86,ENE,65,3.5,3.5,28,0.00,CLR,,0.00,WeatherDisplay:10.37,2013-06-22 06:34:00,
2013-06-21 23:39:00,69.6,35.0,29.86,ENE,66,3.5,3.5,28,0.00,CLR,,0.00,WeatherDisplay:10.37,2013-06-22 06:39:00,
2013-06-21 23:44:00,69.1,35.5,29.87,ENE,66,2.3,2.3,29,0.00,CLR,,0.00,WeatherDisplay:10.37,2013-06-22 06:44:00,
2013-06-21 23:49:00,68.6,35.1,29.87,ENE,65,3.5,3.5,29,0.00,CLR,,0.00,WeatherDisplay:10.37,2013-06-22 06:49:00,
2013-06-21 23:54:00,68.0,34.5,29.87,ENE,66,3.5,3.5,29,0.00,CLR,,0.00,WeatherDisplay:10.37,2013-06-22 06:54:00,
2013-06-21 23:59:00,67.7,34.3,29.87,ENE,66,4.0,4.0,29,0.00,CLR,,0.00,WeatherDisplay:10.37,2013-06-22 06:59:00,